Time;durP1;ratioP1;P1;durP2;ratioP2;P2;SDS_P1;SDS_P2;PMS_P1;PMS_P2;Temp;Humidity;BMP_temperature;BMP_pressure;BME280_temperature;BME280_humidity;BME280_pressure;Samples;Min_cycle;Max_cycle;Signal;HPM_P1;HPM_P2
2022/06/03 00:01:56;;;;;;;4.80;1.30;;;;;;;;;;5036379;28;20397;-65
2022/06/03 00:04:41;;;;;;;3.85;1.70;;;;;;;;;;5037740;28;20056;-66
2022/06/03 00:07:11;;;;;;;3.72;1.30;;;;;;;;;;5018446;28;20486;-66
2022/06/03 00:09:50;;;;;;;5.22;1.67;;;;;;;;;;5037025;28;20601;-65
2022/06/03 00:12:35;;;;;;;3.92;1.30;;;;;;;;;;5042067;28;20044;-66
2022/06/03 00:15:02;;;;;;;4.03;1.20;;;;;;;;;;5037943;28;20072;-66
2022/06/03 00:17:34;;;;;;;2.95;1.10;;;;;;;;;;5038832;28;20040;-66
2022/06/03 00:20:00;;;;;;;;;;;;;;;;;;5037726;28;20041;-65
2022/06/03 00:22:30;;;;;;;4.35;1.20;;;;;;;;;;5038671;28;19917;-66
2022/06/03 00:25:00;;;;;;;4.47;1.48;;;;;;;;;;5038242;28;20048;-67
2022/06/03 00:27:35;;;;;;;5.60;1.35;;;;;;;;;;5039594;28;20523;-66
2022/06/03 00:30:15;;;;;;;16.20;2.03;;;;;;;;;;5038101;28;20072;-66
2022/06/03 00:33:03;;;;;;;6.75;1.60;;;;;;;;;;5027884;27;20415;-65
2022/06/03 00:35:48;;;;;;;7.85;2.22;;;;;;;;;;5016990;28;20180;-67
2022/06/03 00:38:33;;;;;;;9.45;1.10;;;;;;;;;;5019553;28;20041;-66
2022/06/03 00:41:03;;;;;;;4.07;1.23;;;;;;;;;;5019628;28;20041;-67
2022/06/03 00:43:30;;;;;;;7.88;1.27;;;;;;;;;;5016773;28;20042;-68
2022/06/03 00:46:05;;;;;;;4.30;1.42;;;;;;;;;;5032360;28;20045;-66
2022/06/03 00:48:38;;;;;;;6.32;2.10;;;;;;;;;;5030063;28;20049;-66
2022/06/03 00:51:06;;;;;;;;;;;;;;;;;;5047039;28;20084;-67
2022/06/03 00:53:44;;;;;;;4.15;1.48;;;;;;;;;;5015709;28;19913;-66
2022/06/03 00:56:29;;;;;;;5.40;1.25;;;;;;;;;;5016259;28;20057;-66
2022/06/03 00:58:59;;;;;;;7.25;1.08;;;;;;;;;;5015700;28;20068;-65
2022/06/03 01:01:25;;;;;;;8.57;1.60;;;;;;;;;;5016370;28;20041;-66
2022/06/03 01:03:55;;;;;;;4.38;1.27;;;;;;;;;;5016240;28;20125;-65
2022/06/03 01:06:40;;;;;;;5.43;1.35;;;;;;;;;;5031703;28;20076;-66
2022/06/03 01:09:15;;;;;;;5.28;1.40;;;;;;;;;;5031398;28;20045;-67
2022/06/03 01:12:01;;;;;;;4.18;1.08;;;;;;;;;;5015561;28;20800;-68
2022/06/03 01:14:43;;;;;;;3.80;1.30;;;;;;;;;;5017607;28;20056;-66
2022/06/03 01:17:22;;;;;;;4.60;1.67;;;;;;;;;;5049554;28;20239;-67
2022/06/03 01:20:07;;;;;;;6.28;1.35;;;;;;;;;;5028864;28;20526;-67
2022/06/03 01:22:43;;;;;;;3.95;1.40;;;;;;;;;;5033112;28;20029;-66
2022/06/03 01:25:13;;;;;;;5.57;1.10;;;;;;;;;;5018440;28;20056;-66
2022/06/03 01:28:03;;;;;;;3.92;1.08;;;;;;;;;;5016824;28;20128;-66
2022/06/03 01:30:45;;;;;;;2.72;1.10;;;;;;;;;;5015639;28;20046;-66
2022/06/03 01:33:27;;;;;;;4.03;1.30;;;;;;;;;;5022766;28;20057;-66
2022/06/03 01:35:56;;;;;;;4.80;1.30;;;;;;;;;;5020538;28;20057;-66
2022/06/03 01:38:38;;;;;;;4.40;1.13;;;;;;;;;;5018285;28;20262;-66
2022/06/03 01:41:11;;;;;;;4.63;1.35;;;;;;;;;;5018977;28;20108;-67
2022/06/03 01:43:37;;;;;;;;;;;;;;;;;;5007002;28;20045;-66
2022/06/03 01:46:25;;;;;;;11.40;1.63;;;;;;;;;;5002337;28;19995;-66
2022/06/03 01:48:57;;;;;;;4.82;1.45;;;;;;;;;;5002327;28;20625;-67
2022/06/03 01:51:24;;;;;;;6.28;1.30;;;;;;;;;;5032163;28;20104;-66
2022/06/03 01:54:09;;;;;;;22.08;2.33;;;;;;;;;;5016035;28;20240;-67
2022/06/03 01:56:42;;;;;;;7.00;2.85;;;;;;;;;;5000073;28;20041;-64
2022/06/03 01:59:27;;;;;;;8.32;1.23;;;;;;;;;;5001430;28;20084;-67
2022/06/03 02:02:12;;;;;;;6.28;1.40;;;;;;;;;;4999873;28;20081;-67
2022/06/03 02:04:57;;;;;;;5.82;1.40;;;;;;;;;;5000545;28;20086;-65
2022/06/03 02:07:42;;;;;;;4.35;1.17;;;;;;;;;;4998695;28;20041;-66
2022/06/03 02:10:21;;;;;;;6.05;1.33;;;;;;;;;;5000248;28;20045;-67
2022/06/03 02:12:57;;;;;;;9.27;1.20;;;;;;;;;;5000159;28;20084;-67
2022/06/03 02:15:24;;;;;;;3.55;1.00;;;;;;;;;;5018262;28;20049;-66
2022/06/03 02:18:06;;;;;;;4.72;1.30;;;;;;;;;;5001660;28;20101;-65
2022/06/03 02:20:45;;;;;;;8.30;2.40;;;;;;;;;;4998431;28;20089;-65
2022/06/03 02:23:11;;;;;;;3.83;1.30;;;;;;;;;;5004200;28;20190;-64
2022/06/03 02:25:47;;;;;;;4.28;1.02;;;;;;;;;;4999674;28;20053;-66
2022/06/03 02:28:14;;;;;;;6.15;2.28;;;;;;;;;;4999469;28;20046;-65
2022/06/03 02:30:52;;;;;;;8.80;1.30;;;;;;;;;;4999092;28;20153;-65
2022/06/03 02:33:37;;;;;;;8.18;1.45;;;;;;;;;;4999210;28;20129;-66
2022/06/03 02:36:13;;;;;;;3.97;1.58;;;;;;;;;;4999232;28;20049;-66
2022/06/03 02:39:04;;;;;;;4.57;1.00;;;;;;;;;;5000482;28;20053;-66
2022/06/03 02:41:54;;;;;;;3.90;1.20;;;;;;;;;;5022150;28;20105;-67
2022/06/03 02:44:39;;;;;;;6.50;1.25;;;;;;;;;;4998992;28;20052;-65
2022/06/03 02:47:24;;;;;;;4.95;1.25;;;;;;;;;;5001234;28;20046;-65
2022/06/03 02:49:54;;;;;;;4.35;1.60;;;;;;;;;;5000341;28;20053;-65
2022/06/03 02:52:20;;;;;;;11.40;1.60;;;;;;;;;;4998054;28;20057;-66
2022/06/03 02:54:47;;;;;;;6.20;1.30;;;;;;;;;;4997581;28;20034;-65
2022/06/03 02:57:32;;;;;;;5.07;1.83;;;;;;;;;;4998098;28;20041;-66
2022/06/03 03:00:08;;;;;;;4.63;1.90;;;;;;;;;;4997693;28;20069;-66
2022/06/03 03:02:54;;;;;;;10.55;1.63;;;;;;;;;;4999267;28;20454;-65
2022/06/03 03:05:20;;;;;;;5.90;1.60;;;;;;;;;;4999794;28;20113;-65
2022/06/03 03:08:17;;;;;;;9.90;1.88;;;;;;;;;;4998531;28;20064;-66
2022/06/03 03:10:57;;;;;;;4.80;1.20;;;;;;;;;;4998640;28;20406;-65
2022/06/03 03:13:34;;;;;;;7.32;1.48;;;;;;;;;;4997561;28;20065;-65
2022/06/03 03:16:01;;;;;;;8.70;1.48;;;;;;;;;;4998183;28;20066;-66
2022/06/03 03:18:35;;;;;;;5.80;1.48;;;;;;;;;;5013667;28;20034;-66
2022/06/03 03:21:08;;;;;;;5.65;1.38;;;;;;;;;;5000985;28;20073;-68
2022/06/03 03:23:49;;;;;;;8.57;2.05;;;;;;;;;;4999727;28;20042;-65
2022/06/03 03:26:19;;;;;;;6.28;1.52;;;;;;;;;;5001172;28;20088;-65
2022/06/03 03:29:05;;;;;;;9.57;1.77;;;;;;;;;;4997826;28;20132;-65
2022/06/03 03:31:44;;;;;;;11.57;1.83;;;;;;;;;;4997410;28;20054;-66
2022/06/03 03:34:37;;;;;;;10.10;1.60;;;;;;;;;;4998702;28;20506;-65
2022/06/03 03:37:22;;;;;;;12.40;1.60;;;;;;;;;;4989023;28;20088;-66
2022/06/03 03:40:07;;;;;;;7.85;1.95;;;;;;;;;;4998103;28;20095;-65
2022/06/03 03:42:36;;;;;;;7.68;1.40;;;;;;;;;;4996528;28;20621;-66
2022/06/03 03:45:32;;;;;;;9.57;1.67;;;;;;;;;;4997716;28;20124;-64
2022/06/03 03:48:11;;;;;;;12.23;2.85;;;;;;;;;;5011960;28;20226;-64
2022/06/03 03:50:49;;;;;;;6.75;1.85;;;;;;;;;;4996448;28;20131;-66
2022/06/03 03:53:41;;;;;;;4.93;1.67;;;;;;;;;;4996805;28;20053;-67
2022/06/03 03:56:27;;;;;;;8.45;1.92;;;;;;;;;;4995728;28;20041;-67
2022/06/03 03:59:12;;;;;;;10.82;1.65;;;;;;;;;;4997568;28;20041;-66
2022/06/03 04:01:50;;;;;;;7.88;1.90;;;;;;;;;;4997764;28;20450;-66
2022/06/03 04:04:32;;;;;;;13.82;2.45;;;;;;;;;;4996066;28;20041;-67
2022/06/03 04:07:09;;;;;;;11.20;2.03;;;;;;;;;;4997116;28;20034;-66
2022/06/03 04:09:54;;;;;;;13.00;1.90;;;;;;;;;;4997058;28;20124;-67
2022/06/03 04:12:37;;;;;;;8.60;1.63;;;;;;;;;;4995589;28;20054;-67
2022/06/03 04:15:27;;;;;;;6.05;1.40;;;;;;;;;;4998198;28;20046;-67
2022/06/03 04:18:12;;;;;;;4.53;1.60;;;;;;;;;;4995956;28;20105;-67
2022/06/03 04:20:56;;;;;;;7.13;1.77;;;;;;;;;;4997792;28;20386;-67
2022/06/03 04:23:41;;;;;;;5.53;1.45;;;;;;;;;;4994101;28;20057;-67
2022/06/03 04:26:13;;;;;;;8.02;1.58;;;;;;;;;;4995808;28;20042;-67
2022/06/03 04:28:58;;;;;;;7.00;1.70;;;;;;;;;;4995582;28;20128;-67
2022/06/03 04:31:25;;;;;;;5.63;1.70;;;;;;;;;;4995656;28;20054;-66
2022/06/03 04:34:23;;;;;;;12.20;1.85;;;;;;;;;;4995664;28;20128;-66
2022/06/03 04:37:13;;;;;;;10.07;1.70;;;;;;;;;;4995327;28;21487;-66
2022/06/03 04:39:40;;;;;;;7.38;1.77;;;;;;;;;;4995358;28;20570;-66
2022/06/03 04:42:06;;;;;;;9.95;1.70;;;;;;;;;;4996097;28;20120;-67
2022/06/03 04:44:36;;;;;;;6.22;1.60;;;;;;;;;;4995900;28;20388;-67
2022/06/03 04:47:28;;;;;;;5.13;1.20;;;;;;;;;;4996343;28;20061;-67
2022/06/03 04:50:13;;;;;;;7.90;1.48;;;;;;;;;;4994893;28;20094;-67
2022/06/03 04:52:40;;;;;;;4.97;1.63;;;;;;;;;;4995753;28;20133;-66
2022/06/03 04:55:22;;;;;;;10.23;1.80;;;;;;;;;;4997443;28;20516;-67
2022/06/03 04:58:11;;;;;;;6.05;1.30;;;;;;;;;;4995136;28;20423;-65
2022/06/03 05:00:53;;;;;;;3.33;1.35;;;;;;;;;;4994673;28;20141;-67
2022/06/03 05:03:22;;;;;;;7.20;2.00;;;;;;;;;;4995903;28;20038;-67
2022/06/03 05:05:49;;;;;;;6.22;2.13;;;;;;;;;;4995574;28;20042;-63
2022/06/03 05:08:35;;;;;;;9.10;1.70;;;;;;;;;;4995607;28;20246;-66
2022/06/03 05:11:01;;;;;;;5.38;1.75;;;;;;;;;;4995073;28;20426;-65
2022/06/03 05:13:46;;;;;;;9.55;1.92;;;;;;;;;;4995706;28;20037;-66
2022/06/03 05:16:22;;;;;;;4.65;1.70;;;;;;;;;;4997769;28;20089;-66
2022/06/03 05:18:52;;;;;;;4.00;1.42;;;;;;;;;;4999554;28;21850;-66
2022/06/03 05:21:33;;;;;;;4.05;1.33;;;;;;;;;;5000992;28;20041;-66
2022/06/03 05:24:19;;;;;;;7.90;1.80;;;;;;;;;;5001009;28;20037;-65
2022/06/03 05:26:51;;;;;;;6.30;1.58;;;;;;;;;;5002160;28;20042;-65
2022/06/03 05:29:36;;;;;;;6.63;1.50;;;;;;;;;;5002462;28;20566;-66
2022/06/03 05:32:12;;;;;;;12.15;2.05;;;;;;;;;;5003612;28;20045;-67
2022/06/03 05:34:48;;;;;;;5.65;1.75;;;;;;;;;;5002759;28;20041;-67
2022/06/03 05:37:14;;;;;;;5.85;1.55;;;;;;;;;;5004252;28;20781;-67
2022/06/03 05:39:50;;;;;;;9.00;1.90;;;;;;;;;;5003062;28;20694;-66
2022/06/03 05:42:35;;;;;;;11.07;1.60;;;;;;;;;;5003386;28;20073;-67
2022/06/03 05:45:17;;;;;;;7.95;1.63;;;;;;;;;;5013739;28;20153;-67
2022/06/03 05:47:44;;;;;;;5.95;1.50;;;;;;;;;;5006385;28;20103;-67
2022/06/03 05:50:18;;;;;;;4.20;1.38;;;;;;;;;;5003723;28;20026;-67
2022/06/03 05:52:52;;;;;;;5.35;1.73;;;;;;;;;;5002404;28;20056;-66
2022/06/03 05:55:37;;;;;;;4.88;1.30;;;;;;;;;;5032663;28;20478;-66
2022/06/03 05:58:04;;;;;;;8.68;1.45;;;;;;;;;;5001771;28;20072;-66
2022/06/03 06:00:57;;;;;;;4.20;1.50;;;;;;;;;;4999319;28;20073;-66
2022/06/03 06:03:56;;;;;;;7.60;1.80;;;;;;;;;;5001943;28;20038;-67
2022/06/03 06:06:22;;;;;;;8.32;1.90;;;;;;;;;;4991177;28;20502;-66
2022/06/03 06:09:07;;;;;;;6.07;1.48;;;;;;;;;;5003614;28;20038;-66
2022/06/03 06:11:40;;;;;;;8.32;2.00;;;;;;;;;;5002695;28;20153;-66
2022/06/03 06:14:09;;;;;;;8.23;1.90;;;;;;;;;;5002090;28;20199;-66
2022/06/03 06:16:38;;;;;;;5.32;1.88;;;;;;;;;;5003212;28;20070;-66
2022/06/03 06:19:25;;;;;;;12.55;1.70;;;;;;;;;;5002499;28;20030;-66
2022/06/03 06:21:54;;;;;;;11.85;2.00;;;;;;;;;;5001281;28;20056;-66
2022/06/03 06:24:47;;;;;;;7.88;2.00;;;;;;;;;;4987006;28;20049;-66
2022/06/03 06:27:21;;;;;;;5.75;1.75;;;;;;;;;;5000049;28;20589;-66
2022/06/03 06:29:56;;;;;;;7.53;1.90;;;;;;;;;;5000543;28;20046;-66
2022/06/03 06:32:35;;;;;;;8.73;1.80;;;;;;;;;;5001074;28;20213;-65
2022/06/03 06:35:14;;;;;;;4.65;1.50;;;;;;;;;;4999107;28;20050;-65
2022/06/03 06:37:50;;;;;;;8.50;2.03;;;;;;;;;;4998415;28;20072;-67
2022/06/03 06:40:23;;;;;;;7.13;1.80;;;;;;;;;;4998457;28;20049;-68
2022/06/03 06:42:51;;;;;;;;;;;;;;;;;;4997555;28;20590;-67
2022/06/03 06:45:36;;;;;;;5.13;1.92;;;;;;;;;;4997291;28;19924;-68
2022/06/03 06:48:15;;;;;;;8.80;1.95;;;;;;;;;;4997750;28;20042;-66
2022/06/03 06:50:48;;;;;;;9.07;1.90;;;;;;;;;;5029399;28;20042;-66
2022/06/03 06:53:23;;;;;;;7.20;2.22;;;;;;;;;;4998545;28;20046;-66
2022/06/03 06:55:56;;;;;;;7.63;2.13;;;;;;;;;;4997549;28;20435;-66
2022/06/03 06:58:42;;;;;;;5.78;2.08;;;;;;;;;;4997343;28;20133;-67
2022/06/03 07:01:10;;;;;;;7.53;2.08;;;;;;;;;;4998217;28;20046;-66
2022/06/03 07:03:45;;;;;;;12.23;1.80;;;;;;;;;;4999758;28;20125;-66
2022/06/03 07:06:19;;;;;;;5.97;2.00;;;;;;;;;;4998083;28;20041;-67
2022/06/03 07:08:52;;;;;;;6.78;2.10;;;;;;;;;;4997833;28;20379;-67
2022/06/03 07:11:22;;;;;;;6.65;1.58;;;;;;;;;;4997923;28;20532;-66
2022/06/03 07:13:49;;;;;;;4.63;1.65;;;;;;;;;;4996045;28;20041;-67
2022/06/03 07:22:40;;;;;;;15.02;1.88;;;;;;;;;;4995303;28;20121;-66
2022/06/03 07:25:13;;;;;;;6.97;1.83;;;;;;;;;;4985247;28;20099;-65
2022/06/03 07:27:46;;;;;;;9.90;2.05;;;;;;;;;;4998898;28;20053;-67
2022/06/03 07:30:12;;;;;;;9.23;1.83;;;;;;;;;;4998656;28;20099;-65
2022/06/03 07:32:42;;;;;;;6.72;1.90;;;;;;;;;;4997437;28;20628;-66
2022/06/03 07:35:24;;;;;;;4.22;1.73;;;;;;;;;;4997319;28;20038;-66
2022/06/03 07:37:55;;;;;;;12.82;2.10;;;;;;;;;;4997375;28;20068;-67
2022/06/03 07:40:25;;;;;;;8.50;2.03;;;;;;;;;;4997553;28;20159;-66
2022/06/03 07:42:51;;;;;;;6.65;1.63;;;;;;;;;;4998426;28;20034;-66
2022/06/03 07:45:18;;;;;;;7.38;1.80;;;;;;;;;;4997660;28;20046;-65
2022/06/03 07:47:45;;;;;;;6.38;1.98;;;;;;;;;;4997090;28;20048;-65
2022/06/03 07:50:15;;;;;;;4.88;1.58;;;;;;;;;;4997373;28;20042;-65
2022/06/03 07:53:03;;;;;;;7.50;2.00;;;;;;;;;;4995713;28;20119;-66
2022/06/03 07:55:30;;;;;;;8.00;2.00;;;;;;;;;;4996329;28;20053;-66
2022/06/03 07:58:04;;;;;;;13.25;1.92;;;;;;;;;;4997961;28;20050;-66
2022/06/03 08:00:30;;;;;;;;;;;;;;;;;;4997327;28;20046;-66
2022/06/03 08:03:02;;;;;;;9.95;2.17;;;;;;;;;;4996287;28;20029;-66
2022/06/03 08:05:30;;;;;;;6.05;1.80;;;;;;;;;;4995497;28;20042;-66
2022/06/03 08:10:57;;;;;;;4.45;1.73;;;;;;;;;;4996395;28;20100;-66
2022/06/03 08:13:45;;;;;;;5.22;1.80;;;;;;;;;;5027064;28;20165;-66
2022/06/03 08:16:35;;;;;;;5.40;1.73;;;;;;;;;;4996820;28;20062;-66
2022/06/03 08:19:21;;;;;;;3.63;1.40;;;;;;;;;;4993106;28;20472;-66
2022/06/03 08:21:52;;;;;;;4.35;1.77;;;;;;;;;;4995728;28;20144;-67
2022/06/03 08:24:24;;;;;;;8.73;1.70;;;;;;;;;;4996307;28;20073;-67
2022/06/03 08:26:53;;;;;;;6.45;1.83;;;;;;;;;;4996317;28;20856;-66
2022/06/03 08:29:41;;;;;;;13.25;2.13;;;;;;;;;;4997075;28;20439;-68
2022/06/03 08:32:12;;;;;;;4.60;1.70;;;;;;;;;;4995596;28;20046;-67
2022/06/03 08:34:42;;;;;;;4.07;1.70;;;;;;;;;;4995246;28;20042;-67
2022/06/03 08:37:09;;;;;;;7.25;1.70;;;;;;;;;;4996623;28;20038;-66
2022/06/03 08:39:39;;;;;;;5.95;1.70;;;;;;;;;;4996059;28;20072;-66
2022/06/03 08:42:10;;;;;;;6.15;1.70;;;;;;;;;;4995707;28;20042;-66
2022/06/03 08:45:03;;;;;;;7.18;2.20;;;;;;;;;;4995866;28;20045;-67
2022/06/03 08:47:37;;;;;;;5.07;2.00;;;;;;;;;;4991369;28;20064;-66
2022/06/03 08:50:13;;;;;;;4.95;2.03;;;;;;;;;;4995277;28;20034;-66
2022/06/03 08:52:58;;;;;;;6.25;1.80;;;;;;;;;;4996003;28;20046;-65
2022/06/03 08:55:25;;;;;;;5.35;2.05;;;;;;;;;;5014399;28;20036;-66
2022/06/03 08:57:54;;;;;;;6.68;1.88;;;;;;;;;;4999132;28;20038;-66
2022/06/03 09:00:23;;;;;;;8.43;2.38;;;;;;;;;;5000110;28;20192;-66
2022/06/03 09:02:55;;;;;;;7.07;2.28;;;;;;;;;;4998391;28;20056;-66
2022/06/03 09:05:24;;;;;;;8.18;2.20;;;;;;;;;;4999830;28;20132;-66
2022/06/03 09:08:05;;;;;;;13.70;2.35;;;;;;;;;;5014603;28;20038;-65
2022/06/03 09:10:41;;;;;;;5.53;2.00;;;;;;;;;;4998984;28;20042;-66
2022/06/03 09:13:08;;;;;;;7.63;1.80;;;;;;;;;;4997887;28;20041;-65
2022/06/03 09:15:39;;;;;;;6.68;2.00;;;;;;;;;;4998303;28;20049;-66
2022/06/03 09:18:09;;;;;;;6.30;2.20;;;;;;;;;;4999065;28;20070;-66
2022/06/03 09:20:39;;;;;;;6.28;2.05;;;;;;;;;;4998775;28;20172;-65
2022/06/03 09:23:08;;;;;;;5.60;1.92;;;;;;;;;;4998101;28;20050;-65
2022/06/03 09:25:38;;;;;;;10.73;2.17;;;;;;;;;;4999444;28;20049;-66
2022/06/03 09:28:07;;;;;;;6.57;2.03;;;;;;;;;;4999730;28;20062;-65
2022/06/03 09:30:38;;;;;;;4.88;1.88;;;;;;;;;;4999551;28;20065;-65
2022/06/03 09:33:06;;;;;;;5.93;1.80;;;;;;;;;;4999731;28;20072;-65
2022/06/03 09:35:34;;;;;;;4.95;2.00;;;;;;;;;;4998858;28;20762;-64
2022/06/03 09:38:02;;;;;;;5.93;1.67;;;;;;;;;;4998872;28;20042;-64
2022/06/03 09:40:31;;;;;;;6.13;2.13;;;;;;;;;;4999396;28;20046;-65
2022/06/03 09:43:00;;;;;;;7.70;2.33;;;;;;;;;;4999395;28;20053;-65
2022/06/03 09:45:28;;;;;;;7.82;2.42;;;;;;;;;;4998850;28;20398;-65
2022/06/03 09:47:55;;;;;;;7.22;1.83;;;;;;;;;;4999646;28;20046;-66
2022/06/03 09:50:24;;;;;;;5.95;2.45;;;;;;;;;;4998509;28;20404;-66
2022/06/03 09:52:59;;;;;;;6.63;2.30;;;;;;;;;;4998790;28;20045;-65
2022/06/03 09:55:33;;;;;;;9.15;2.58;;;;;;;;;;4998541;28;20473;-65
2022/06/03 09:58:01;;;;;;;9.43;2.50;;;;;;;;;;4998191;28;20045;-65
2022/06/03 10:00:30;;;;;;;7.28;2.17;;;;;;;;;;4998491;28;20038;-65
2022/06/03 10:02:57;;;;;;;6.97;1.95;;;;;;;;;;4998926;28;20221;-65
2022/06/03 10:05:24;;;;;;;7.72;2.15;;;;;;;;;;4998768;28;20050;-65
2022/06/03 10:08:03;;;;;;;4.63;2.20;;;;;;;;;;4999584;28;20834;-65
2022/06/03 10:13:17;;;;;;;6.40;2.30;;;;;;;;;;4999512;28;20413;-65
2022/06/03 10:15:53;;;;;;;11.38;2.58;;;;;;;;;;4999415;28;20038;-66
2022/06/03 10:18:35;;;;;;;6.00;2.05;;;;;;;;;;5029342;28;20042;-66
2022/06/03 10:21:11;;;;;;;9.68;2.47;;;;;;;;;;4998983;28;20490;-65
2022/06/03 10:23:42;;;;;;;7.22;2.05;;;;;;;;;;4998747;28;20072;-66
2022/06/03 10:26:09;;;;;;;6.13;1.88;;;;;;;;;;4999156;28;20042;-67
2022/06/03 10:28:37;;;;;;;6.22;2.60;;;;;;;;;;4997258;28;20042;-66
2022/06/03 10:31:06;;;;;;;4.68;2.20;;;;;;;;;;4998861;28;20065;-66
2022/06/03 10:33:42;;;;;;;6.25;2.65;;;;;;;;;;5006353;28;20049;-67
2022/06/03 10:36:09;;;;;;;6.22;2.20;;;;;;;;;;5008385;28;20124;-67
2022/06/03 10:38:36;;;;;;;10.35;2.35;;;;;;;;;;4998135;28;20037;-67
2022/06/03 10:41:09;;;;;;;8.48;2.33;;;;;;;;;;4999437;28;20042;-66
2022/06/03 10:43:39;;;;;;;10.13;2.33;;;;;;;;;;4996399;28;20084;-67
2022/06/03 10:46:11;;;;;;;11.85;2.22;;;;;;;;;;4996721;28;20096;-67
2022/06/03 10:48:37;;;;;;;7.18;1.92;;;;;;;;;;4997420;28;20045;-66
2022/06/03 10:51:13;;;;;;;5.18;2.20;;;;;;;;;;4996404;28;20042;-66
2022/06/03 11:02:00;;;;;;;6.07;2.15;;;;;;;;;;4996490;28;20052;-66
2022/06/03 11:04:37;;;;;;;11.85;2.05;;;;;;;;;;4996376;28;20070;-65
2022/06/03 11:07:21;;;;;;;5.20;1.90;;;;;;;;;;4997822;28;20072;-66
2022/06/03 11:09:54;;;;;;;5.85;2.10;;;;;;;;;;4996256;28;20101;-66
2022/06/03 11:12:25;;;;;;;6.18;2.47;;;;;;;;;;4997152;28;20042;-66
2022/06/03 11:14:52;;;;;;;6.32;2.42;;;;;;;;;;4996806;28;20046;-66
2022/06/03 11:17:23;;;;;;;6.18;1.88;;;;;;;;;;4997784;28;20076;-66
2022/06/03 11:19:52;;;;;;;5.68;1.67;;;;;;;;;;4996993;28;20080;-65
2022/06/03 11:22:21;;;;;;;5.18;2.00;;;;;;;;;;4998919;28;20046;-65
2022/06/03 11:25:13;;;;;;;5.32;2.13;;;;;;;;;;4992818;28;20037;-66
2022/06/03 11:27:40;;;;;;;8.02;2.03;;;;;;;;;;4996555;28;20045;-66
2022/06/03 11:30:16;;;;;;;10.02;2.72;;;;;;;;;;4999580;28;20048;-65
2022/06/03 11:32:44;;;;;;;8.13;2.05;;;;;;;;;;4998233;28;20050;-67
2022/06/03 11:35:16;;;;;;;7.22;2.03;;;;;;;;;;4998762;28;20041;-66
2022/06/03 11:37:45;;;;;;;7.43;2.30;;;;;;;;;;4999035;28;20041;-66
2022/06/03 11:40:18;;;;;;;5.90;2.22;;;;;;;;;;5000201;28;20037;-65
2022/06/03 11:42:51;;;;;;;5.78;2.22;;;;;;;;;;4999078;28;20054;-64
2022/06/03 11:45:19;;;;;;;8.50;2.20;;;;;;;;;;4999644;28;20096;-65
2022/06/03 11:47:57;;;;;;;5.45;2.08;;;;;;;;;;4998901;28;20057;-67
2022/06/03 11:50:25;;;;;;;6.38;2.33;;;;;;;;;;4998545;28;20049;-66
2022/06/03 11:52:54;;;;;;;14.20;2.33;;;;;;;;;;4997692;28;20045;-64
2022/06/03 11:55:21;;;;;;;13.00;2.70;;;;;;;;;;4998248;28;20402;-66
2022/06/03 11:57:56;;;;;;;8.40;2.15;;;;;;;;;;4997298;28;20151;-66
2022/06/03 12:00:24;;;;;;;10.00;2.33;;;;;;;;;;4995890;28;20038;-65
2022/06/03 12:02:57;;;;;;;6.32;2.15;;;;;;;;;;4996966;28;20284;-66
2022/06/03 12:05:27;;;;;;;7.93;2.00;;;;;;;;;;4995409;28;21935;-66
2022/06/03 12:08:09;;;;;;;10.00;2.25;;;;;;;;;;4997578;28;20122;-66
2022/06/03 12:10:41;;;;;;;8.70;2.08;;;;;;;;;;4996166;28;20154;-66
2022/06/03 12:13:21;;;;;;;7.70;1.80;;;;;;;;;;4995858;28;20509;-66
2022/06/03 12:15:51;;;;;;;12.45;2.50;;;;;;;;;;4987442;28;20129;-67
2022/06/03 12:18:42;;;;;;;8.82;2.20;;;;;;;;;;4996692;28;20039;-66
2022/06/03 12:21:32;;;;;;;5.45;2.20;;;;;;;;;;4995932;28;20041;-66
2022/06/03 12:24:18;;;;;;;10.77;2.42;;;;;;;;;;5002599;28;20048;-67
2022/06/03 12:26:48;;;;;;;6.50;2.30;;;;;;;;;;4995916;28;20038;-63
2022/06/03 12:29:30;;;;;;;9.20;3.83;;;;;;;;;;4996332;28;20045;-66
2022/06/03 12:32:08;;;;;;;15.95;2.95;;;;;;;;;;4994641;28;20041;-66
2022/06/03 12:34:36;;;;;;;11.65;2.80;;;;;;;;;;4995065;28;20045;-66
2022/06/03 12:37:22;;;;;;;8.57;2.53;;;;;;;;;;4996531;28;20584;-68
2022/06/03 12:40:00;;;;;;;8.35;2.10;;;;;;;;;;4994938;28;20078;-66
2022/06/03 12:42:29;;;;;;;5.07;1.80;;;;;;;;;;4995736;28;20120;-67
2022/06/03 12:45:05;;;;;;;10.80;2.40;;;;;;;;;;4995914;28;20076;-67
2022/06/03 12:47:35;;;;;;;13.98;2.17;;;;;;;;;;4996387;28;20086;-67
2022/06/03 12:50:04;;;;;;;13.38;3.22;;;;;;;;;;4997286;28;20049;-66
2022/06/03 12:52:31;;;;;;;5.70;2.20;;;;;;;;;;4997846;28;20041;-64
2022/06/03 12:54:58;;;;;;;5.18;1.60;;;;;;;;;;4997131;28;20034;-65
2022/06/03 12:57:33;;;;;;;6.82;2.17;;;;;;;;;;4997161;28;20046;-66
2022/06/03 13:00:05;;;;;;;6.60;2.00;;;;;;;;;;4998951;28;20046;-65
2022/06/03 13:02:34;;;;;;;11.13;2.33;;;;;;;;;;5008553;28;20442;-65
2022/06/03 13:05:09;;;;;;;5.57;2.05;;;;;;;;;;4996333;28;20042;-64
2022/06/03 13:07:36;;;;;;;4.85;1.80;;;;;;;;;;4997705;28;20422;-65
2022/06/03 13:10:03;;;;;;;6.85;2.10;;;;;;;;;;4995468;28;20134;-66
2022/06/03 13:12:32;;;;;;;8.38;2.55;;;;;;;;;;5011146;28;20160;-65
2022/06/03 13:15:19;;;;;;;15.20;2.35;;;;;;;;;;4997062;28;20041;-65
2022/06/03 13:17:55;;;;;;;9.27;2.05;;;;;;;;;;4988899;28;20394;-65
2022/06/03 13:20:57;;;;;;;7.35;2.05;;;;;;;;;;4996352;28;20064;-65
2022/06/03 13:23:23;;;;;;;9.05;2.20;;;;;;;;;;4970790;28;20601;-64
2022/06/03 13:25:51;;;;;;;12.52;2.63;;;;;;;;;;4992443;28;20510;-66
2022/06/03 13:28:22;;;;;;;11.02;2.53;;;;;;;;;;4999297;28;20030;-65
2022/06/03 13:31:06;;;;;;;8.27;2.40;;;;;;;;;;4999477;28;20045;-66
2022/06/03 13:33:49;;;;;;;12.95;2.60;;;;;;;;;;4997936;28;20473;-64
2022/06/03 13:36:30;;;;;;;8.38;3.80;;;;;;;;;;5000774;28;21713;-66
2022/06/03 13:38:57;;;;;;;12.23;2.70;;;;;;;;;;4996026;28;20052;-63
2022/06/03 13:44:41;;;;;;;12.10;2.80;;;;;;;;;;4997419;28;20362;-65
2022/06/03 13:47:13;;;;;;;10.98;2.20;;;;;;;;;;5000114;28;20048;-65
2022/06/03 13:49:55;;;;;;;10.80;2.57;;;;;;;;;;5000139;28;21046;-63
2022/06/03 13:52:26;;;;;;;7.97;2.55;;;;;;;;;;5015750;28;20165;-64
2022/06/03 13:54:55;;;;;;;14.02;2.65;;;;;;;;;;5002494;28;20038;-64
2022/06/03 13:57:35;;;;;;;14.75;3.08;;;;;;;;;;5001661;28;20493;-65
2022/06/03 14:00:22;;;;;;;12.30;2.13;;;;;;;;;;5000293;28;20049;-64
2022/06/03 14:02:50;;;;;;;10.55;2.55;;;;;;;;;;4998377;28;20053;-64
2022/06/03 14:05:28;;;;;;;5.57;2.20;;;;;;;;;;4998569;28;20089;-64
2022/06/03 14:08:01;;;;;;;6.97;2.33;;;;;;;;;;4997691;28;20049;-64
2022/06/03 14:10:33;;;;;;;9.18;2.35;;;;;;;;;;4996791;28;20096;-65
2022/06/03 14:13:04;;;;;;;8.17;1.83;;;;;;;;;;4997577;28;20777;-65
2022/06/03 14:15:33;;;;;;;7.03;1.85;;;;;;;;;;4997679;28;20239;-65
2022/06/03 14:18:00;;;;;;;6.65;1.73;;;;;;;;;;4998941;28;20061;-66
2022/06/03 14:20:27;;;;;;;5.40;2.00;;;;;;;;;;4997655;28;20030;-65
2022/06/03 14:22:56;;;;;;;5.05;1.33;;;;;;;;;;4999169;28;20078;-65
2022/06/03 14:25:29;;;;;;;5.95;1.92;;;;;;;;;;4998574;28;20041;-64
2022/06/03 14:27:56;;;;;;;4.93;2.17;;;;;;;;;;4999102;28;20049;-66
2022/06/03 14:30:39;;;;;;;4.90;1.70;;;;;;;;;;4999346;28;20584;-65
2022/06/03 14:33:07;;;;;;;5.43;1.60;;;;;;;;;;4998527;28;20056;-65
2022/06/03 14:35:42;;;;;;;4.03;1.60;;;;;;;;;;4997275;28;20192;-65
2022/06/03 14:38:18;;;;;;;4.18;1.13;;;;;;;;;;4999812;28;20165;-65
2022/06/03 14:40:47;;;;;;;5.03;1.40;;;;;;;;;;4998568;28;20121;-66
2022/06/03 14:43:16;;;;;;;4.20;1.42;;;;;;;;;;5029296;28;20124;-65
2022/06/03 14:45:45;;;;;;;7.93;1.50;;;;;;;;;;4998417;28;20041;-65
2022/06/03 14:48:13;;;;;;;8.57;1.30;;;;;;;;;;4999241;28;20069;-65
2022/06/03 14:50:42;;;;;;;7.35;1.38;;;;;;;;;;4999532;28;20038;-65
2022/06/03 14:53:21;;;;;;;7.25;1.13;;;;;;;;;;4999971;28;20169;-65
2022/06/03 14:56:01;;;;;;;3.35;1.38;;;;;;;;;;4999916;28;20104;-65
2022/06/03 14:58:43;;;;;;;4.35;1.20;;;;;;;;;;5000358;28;20414;-64
2022/06/03 15:01:20;;;;;;;9.60;1.60;;;;;;;;;;5002556;28;20072;-64
2022/06/03 15:03:51;;;;;;;5.45;1.17;;;;;;;;;;5000179;28;20053;-65
2022/06/03 15:06:20;;;;;;;4.68;1.33;;;;;;;;;;5004169;28;20077;-65
2022/06/03 15:09:07;;;;;;;8.27;1.60;;;;;;;;;;5003177;28;20034;-64
2022/06/03 15:11:39;;;;;;;5.97;1.33;;;;;;;;;;4998458;28;20486;-65
2022/06/03 15:14:07;;;;;;;5.27;1.60;;;;;;;;;;4997922;28;20053;-65
2022/06/03 15:16:35;;;;;;;6.30;1.27;;;;;;;;;;4998878;28;20176;-66
2022/06/03 15:19:01;;;;;;;4.15;1.20;;;;;;;;;;4998804;28;20544;-65
2022/06/03 15:21:36;;;;;;;8.63;1.40;;;;;;;;;;4997812;28;20084;-65
2022/06/03 15:24:04;;;;;;;6.93;1.25;;;;;;;;;;4997665;28;20044;-65
2022/06/03 15:26:33;;;;;;;4.78;1.20;;;;;;;;;;4997250;28;20100;-65
2022/06/03 15:29:06;;;;;;;9.75;1.42;;;;;;;;;;4998187;28;20033;-66
2022/06/03 15:31:35;;;;;;;7.65;1.42;;;;;;;;;;4997324;28;20136;-66
2022/06/03 15:34:04;;;;;;;4.93;1.30;;;;;;;;;;4997396;28;20034;-66
2022/06/03 15:36:35;;;;;;;8.63;1.15;;;;;;;;;;4998297;28;20156;-65
2022/06/03 15:39:15;;;;;;;5.03;1.10;;;;;;;;;;4998331;28;20049;-67
2022/06/03 15:41:43;;;;;;;5.97;1.27;;;;;;;;;;4998007;28;20955;-66
2022/06/03 15:44:09;;;;;;;7.60;1.15;;;;;;;;;;4996755;28;20121;-65
2022/06/03 15:46:41;;;;;;;4.38;1.30;;;;;;;;;;4997933;28;20065;-66
2022/06/03 15:49:08;;;;;;;6.78;1.30;;;;;;;;;;4997153;28;20046;-66
2022/06/03 15:51:42;;;;;;;3.83;1.13;;;;;;;;;;4997279;28;20042;-66
2022/06/03 15:54:09;;;;;;;3.70;1.02;;;;;;;;;;4998254;28;20042;-64